createdAt,value
2019-06-08T00:02:41.042Z,84.90
2019-06-08T00:05:32.371Z,85.40
2019-06-08T00:08:23.069Z,84.00
2019-06-08T00:11:14.971Z,84.20
2019-06-08T00:14:05.118Z,84.90
2019-06-08T00:20:23.685Z,85.20
2019-06-08T00:23:15.745Z,84.10
2019-06-08T00:26:06.050Z,83.70
2019-06-08T00:28:56.088Z,85.80
2019-06-08T00:31:46.675Z,85.80
2019-06-08T00:34:36.962Z,85.00
2019-06-08T00:37:27.124Z,84.10
2019-06-08T00:40:17.273Z,84.50
2019-06-08T00:43:07.280Z,84.60
2019-06-08T00:45:57.449Z,85.00
2019-06-08T00:48:47.329Z,83.50
2019-06-08T00:51:37.498Z,84.90
2019-06-08T00:54:28.009Z,84.60
2019-06-08T00:57:19.606Z,84.90
2019-06-08T01:00:11.746Z,85.00
2019-06-08T01:03:02.554Z,84.80
2019-06-08T01:05:53.087Z,84.30
2019-06-08T01:08:43.828Z,85.50
2019-06-08T01:19:27.516Z,84.60
2019-06-08T01:22:21.457Z,83.10
2019-06-08T01:25:11.349Z,84.30
2019-06-08T01:28:01.567Z,84.70
2019-06-08T01:30:51.528Z,83.90
2019-06-08T01:33:41.753Z,84.10
2019-06-08T01:36:31.382Z,83.60
2019-06-08T01:39:23.099Z,84.80
2019-06-08T01:42:13.198Z,84.90
2019-06-08T01:45:03.427Z,86.20
2019-06-08T01:47:53.916Z,85.30
2019-06-08T01:50:43.673Z,83.90
2019-06-08T01:53:33.579Z,85.30
2019-06-08T01:56:23.570Z,85.20
2019-06-08T01:59:13.951Z,85.40
2019-06-08T02:02:03.668Z,84.50
2019-06-08T02:04:53.705Z,85.00
2019-06-08T02:07:44.046Z,84.40
2019-06-08T02:10:34.883Z,84.40
2019-06-08T02:13:26.911Z,85.80
2019-06-08T02:20:06.113Z,85.00
2019-06-08T02:22:56.002Z,86.10
2019-06-08T02:25:46.419Z,86.30
2019-06-08T02:28:36.556Z,86.30
2019-06-08T02:31:27.827Z,85.50
2019-06-08T02:34:17.771Z,86.30
2019-06-08T02:37:07.694Z,86.20
2019-06-08T02:39:58.273Z,85.20
2019-06-08T02:42:49.240Z,85.60
2019-06-08T02:45:40.485Z,85.20
2019-06-08T02:48:31.419Z,85.30
2019-06-08T02:51:28.635Z,86.30
2019-06-08T02:54:19.339Z,86.90
2019-06-08T02:57:09.964Z,86.00
2019-06-08T03:00:02.263Z,86.50
2019-06-08T03:02:55.200Z,86.20
2019-06-08T03:05:45.840Z,85.70
2019-06-08T03:08:41.172Z,87.00
2019-06-08T03:11:32.546Z,86.00
2019-06-08T03:14:25.287Z,86.40
2019-06-08T03:17:15.818Z,86.30
2019-06-08T03:20:09.339Z,86.20
2019-06-08T03:22:59.585Z,86.20
2019-06-08T03:25:52.919Z,85.20
2019-06-08T03:28:44.049Z,85.20
2019-06-08T03:31:36.095Z,85.60
2019-06-08T03:34:30.242Z,86.10
2019-06-08T03:37:21.008Z,86.10
2019-06-08T03:40:17.896Z,85.30
2019-06-08T03:43:15.116Z,85.60
2019-06-08T03:46:07.274Z,86.10
2019-06-08T03:49:05.347Z,86.00
2019-06-08T03:52:02.020Z,85.70
2019-06-08T03:54:56.865Z,85.60
2019-06-08T03:57:47.441Z,85.50
2019-06-08T04:00:38.348Z,85.70
2019-06-08T04:03:33.293Z,85.10
2019-06-08T04:06:24.301Z,85.00
2019-06-08T04:09:15.014Z,85.00
2019-06-08T04:12:05.509Z,85.10
2019-06-08T04:14:55.843Z,84.90
2019-06-08T04:17:46.713Z,84.10
2019-06-08T04:20:38.005Z,83.60
2019-06-08T04:23:28.559Z,83.70
2019-06-08T04:26:19.109Z,84.30
2019-06-08T04:29:09.069Z,84.80
2019-06-08T04:32:00.956Z,84.10
2019-06-08T04:34:51.208Z,84.60
2019-06-08T04:37:42.551Z,83.80
2019-06-08T04:40:34.334Z,83.50
2019-06-08T04:43:24.756Z,84.70
2019-06-08T04:46:14.558Z,83.30
2019-06-08T04:49:05.017Z,83.10
2019-06-08T04:51:55.805Z,83.40
2019-06-08T04:54:47.538Z,82.60
2019-06-08T04:57:41.369Z,83.50
2019-06-08T05:00:31.513Z,82.50
2019-06-08T05:03:21.836Z,82.20
2019-06-08T05:06:11.768Z,82.70
2019-06-08T05:09:03.396Z,81.90
2019-06-08T05:11:53.723Z,81.80
2019-06-08T05:14:45.110Z,82.30
2019-06-08T05:17:35.329Z,80.40
2019-06-08T05:20:38.487Z,81.40
2019-06-08T05:23:17.691Z,82.60
2019-06-08T05:26:08.134Z,80.80
2019-06-08T05:28:58.607Z,80.10
2019-06-08T05:31:49.772Z,79.70
2019-06-08T05:34:41.408Z,79.90
2019-06-08T05:37:36.688Z,79.00
2019-06-08T05:40:27.598Z,79.00
2019-06-08T05:43:18.608Z,77.20
2019-06-08T05:46:09.331Z,76.20
2019-06-08T05:48:59.318Z,75.60
2019-06-08T05:51:50.053Z,76.00
2019-06-08T05:54:40.269Z,76.10
2019-06-08T05:57:30.052Z,75.80
2019-06-08T06:00:21.318Z,73.70
2019-06-08T06:03:11.153Z,74.60
2019-06-08T06:06:00.905Z,74.20
2019-06-08T06:08:51.356Z,73.50
2019-06-08T06:11:42.774Z,72.90
2019-06-08T06:14:36.251Z,73.10
2019-06-08T06:17:23.945Z,71.00
2019-06-08T06:20:15.450Z,72.30
2019-06-08T06:23:05.459Z,71.50
2019-06-08T06:25:55.481Z,69.80
2019-06-08T06:28:45.622Z,70.80
2019-06-08T06:31:35.640Z,68.90
2019-06-08T06:34:25.485Z,68.70
2019-06-08T06:37:15.215Z,68.80
2019-06-08T06:40:09.339Z,68.90
2019-06-08T06:42:59.360Z,69.20
2019-06-08T06:45:49.976Z,66.40
2019-06-08T06:48:39.881Z,66.80
2019-06-08T06:51:33.861Z,64.50
2019-06-08T06:54:23.019Z,65.50
2019-06-08T06:57:12.472Z,62.50
2019-06-08T07:00:04.544Z,62.10
2019-06-08T07:02:54.132Z,64.40
2019-06-08T07:05:45.738Z,61.60
2019-06-08T07:08:35.604Z,60.30
2019-06-08T07:11:25.387Z,62.20
2019-06-08T07:14:15.258Z,60.90
2019-06-08T07:17:05.524Z,61.90
2019-06-08T07:19:55.179Z,58.50
2019-06-08T07:22:46.024Z,57.20
2019-06-08T07:25:36.013Z,54.40
2019-06-08T07:28:25.679Z,53.90
2019-06-08T07:31:15.348Z,52.70
2019-06-08T07:34:05.259Z,50.40
2019-06-08T07:36:55.562Z,49.50
2019-06-08T07:39:45.629Z,50.30
2019-06-08T07:42:35.424Z,47.00
2019-06-08T07:45:24.987Z,47.80
2019-06-08T07:48:14.805Z,46.70
2019-06-08T07:51:04.337Z,46.40
2019-06-08T07:53:55.725Z,44.50
2019-06-08T07:56:46.255Z,44.80
2019-06-08T07:59:35.823Z,44.40
2019-06-08T08:02:25.572Z,44.80
2019-06-08T08:05:16.147Z,46.30
2019-06-08T08:08:07.296Z,47.10
2019-06-08T08:10:56.861Z,46.90
2019-06-08T08:13:46.808Z,45.70
2019-06-08T08:16:36.538Z,46.70
2019-06-08T08:19:26.686Z,47.50
2019-06-08T08:22:23.080Z,47.40
2019-06-08T08:25:11.168Z,46.00
2019-06-08T08:28:01.154Z,45.40
2019-06-08T08:30:52.718Z,42.90
2019-06-08T08:33:42.554Z,41.30
2019-06-08T08:36:33.555Z,42.70
2019-06-08T08:39:23.252Z,41.10
2019-06-08T08:42:13.093Z,43.70
2019-06-08T08:45:05.088Z,41.80
2019-06-08T08:48:10.385Z,41.50
2019-06-08T08:50:44.919Z,43.00
2019-06-08T08:53:34.826Z,43.00
2019-06-08T08:56:24.424Z,42.00
2019-06-08T08:59:14.190Z,42.60
2019-06-08T09:02:05.237Z,40.20
2019-06-08T09:04:55.282Z,41.00
2019-06-08T09:07:48.033Z,38.80
2019-06-08T09:10:38.222Z,39.90
2019-06-08T09:13:28.270Z,41.70
2019-06-08T09:16:17.999Z,40.50
2019-06-08T09:19:09.859Z,41.70
2019-06-08T09:22:02.082Z,39.80
2019-06-08T09:24:52.515Z,39.60
2019-06-08T09:27:41.294Z,39.50
2019-06-08T09:30:31.003Z,40.00
2019-06-08T09:33:22.129Z,40.20
2019-06-08T09:36:13.546Z,38.70
2019-06-08T09:39:04.761Z,40.10
2019-06-08T09:41:55.987Z,37.70
2019-06-08T09:44:48.116Z,37.10
2019-06-08T09:47:38.518Z,37.50
2019-06-08T09:50:28.213Z,36.50
2019-06-08T09:53:26.858Z,37.10
2019-06-08T09:56:09.956Z,38.50
2019-06-08T09:59:03.831Z,36.20
2019-06-08T10:01:51.097Z,37.10
2019-06-08T10:04:40.664Z,38.00
2019-06-08T10:07:31.295Z,37.70
2019-06-08T10:10:21.334Z,38.00
2019-06-08T10:13:11.203Z,38.40
2019-06-08T10:16:03.591Z,38.30
2019-06-08T10:18:51.851Z,37.40
2019-06-08T10:21:43.085Z,39.60
2019-06-08T10:24:38.810Z,38.40
2019-06-08T10:27:29.567Z,35.20
2019-06-08T10:30:19.872Z,35.30
2019-06-08T10:33:10.226Z,35.20
2019-06-08T10:36:03.128Z,35.10
2019-06-08T10:38:52.091Z,35.20
2019-06-08T10:41:42.948Z,36.50
2019-06-08T10:44:32.791Z,37.60
2019-06-08T10:47:22.915Z,37.60
2019-06-08T10:50:15.504Z,33.90
2019-06-08T10:53:08.083Z,36.00
2019-06-08T10:55:58.228Z,34.00
2019-06-08T10:58:49.784Z,38.00
2019-06-08T11:01:39.063Z,37.30
2019-06-08T11:04:28.760Z,38.00
2019-06-08T11:07:18.570Z,37.70
2019-06-08T11:10:12.034Z,37.20
2019-06-08T11:13:05.155Z,37.50
2019-06-08T11:15:51.097Z,40.20
2019-06-08T11:18:40.600Z,40.40
2019-06-08T11:21:30.614Z,41.60
2019-06-08T11:24:24.653Z,41.70
2019-06-08T11:27:12.980Z,41.60
2019-06-08T11:30:11.664Z,41.70
2019-06-08T11:32:54.803Z,42.50
2019-06-08T11:35:44.700Z,39.60
2019-06-08T11:38:34.355Z,41.70
2019-06-08T11:41:24.150Z,41.50
2019-06-08T11:44:14.821Z,40.30
2019-06-08T11:47:07.352Z,39.10
2019-06-08T11:49:57.671Z,39.10
2019-06-08T11:52:49.290Z,41.10
2019-06-08T11:55:38.519Z,44.80
2019-06-08T11:58:30.745Z,39.60
2019-06-08T12:01:20.506Z,39.80
2019-06-08T12:04:10.040Z,40.50
2019-06-08T12:06:59.999Z,38.40
2019-06-08T12:09:50.375Z,38.00
2019-06-08T12:12:40.306Z,37.60
2019-06-08T12:15:30.020Z,40.00
2019-06-08T12:18:20.017Z,38.20
2019-06-08T12:21:13.296Z,35.10
2019-06-08T12:24:06.163Z,35.90
2019-06-08T12:27:09.029Z,36.40
2019-06-08T12:29:51.511Z,37.50
2019-06-08T12:32:42.636Z,35.50
2019-06-08T12:35:35.648Z,36.10
2019-06-08T12:38:29.960Z,33.20
2019-06-08T12:41:21.777Z,34.90
2019-06-08T12:44:16.724Z,35.80
2019-06-08T12:47:10.673Z,36.50
2019-06-08T12:50:08.202Z,36.90
2019-06-08T12:52:58.756Z,35.00
2019-06-08T12:55:52.274Z,36.10
2019-06-08T12:58:47.643Z,36.70
2019-06-08T13:01:38.133Z,38.10
2019-06-08T13:04:28.621Z,37.40
2019-06-08T13:07:19.002Z,36.80
2019-06-08T13:10:10.953Z,37.60
2019-06-08T13:13:00.533Z,38.30
2019-06-08T13:15:50.106Z,40.00
2019-06-08T13:18:40.806Z,39.00
2019-06-08T13:21:34.955Z,39.40
2019-06-08T13:24:22.005Z,39.70
2019-06-08T13:27:13.690Z,39.20
2019-06-08T13:30:03.439Z,37.60
2019-06-08T13:32:53.674Z,36.80
2019-06-08T13:35:44.244Z,37.10
2019-06-08T13:38:34.546Z,36.90
2019-06-08T13:41:26.707Z,36.40
2019-06-08T13:44:17.817Z,37.00
2019-06-08T13:47:12.204Z,41.00
2019-06-08T13:49:59.370Z,40.80
2019-06-08T13:52:49.267Z,38.20
2019-06-08T13:55:51.756Z,38.10
2019-06-08T13:58:33.413Z,37.90
2019-06-08T14:01:22.339Z,37.40
2019-06-08T14:16:23.316Z,41.50
2019-06-08T14:34:54.831Z,43.80
2019-06-08T14:41:52.504Z,45.30
2019-06-08T14:44:47.701Z,45.00
2019-06-08T14:54:58.639Z,41.70
2019-06-08T14:58:48.389Z,42.70
2019-06-08T15:01:41.153Z,43.50
2019-06-08T15:04:36.264Z,45.00
2019-06-08T15:07:31.288Z,46.00
2019-06-08T15:13:54.968Z,48.80
2019-06-08T15:16:49.262Z,49.40
2019-06-08T15:19:37.239Z,49.20
2019-06-08T15:22:30.520Z,49.60
2019-06-08T15:25:20.511Z,49.90
2019-06-08T15:28:11.346Z,49.90
2019-06-08T15:31:02.055Z,49.90
2019-06-08T15:33:52.080Z,49.90
2019-06-08T15:36:41.866Z,49.80
2019-06-08T15:39:34.078Z,50.60
2019-06-08T15:42:26.780Z,50.50
2019-06-08T15:45:18.323Z,50.70
2019-06-08T15:48:08.502Z,51.10
2019-06-08T15:50:58.660Z,51.00
2019-06-08T15:53:49.017Z,51.50
2019-06-08T15:56:48.667Z,51.70
2019-06-08T15:59:37.929Z,52.40
2019-06-08T16:02:25.007Z,52.70
2019-06-08T16:05:15.131Z,52.50
2019-06-08T16:08:05.119Z,53.40
2019-06-08T16:10:58.320Z,52.90
2019-06-08T16:13:52.501Z,52.90
2019-06-08T16:16:42.092Z,53.60
2019-06-08T16:19:31.938Z,53.90
2019-06-08T16:22:22.432Z,54.50
2019-06-08T16:25:12.606Z,54.70
2019-06-08T16:28:03.167Z,54.40
2019-06-08T16:30:54.668Z,54.90
2019-06-08T16:33:46.716Z,55.00
2019-06-08T16:36:36.816Z,55.10
2019-06-08T16:39:31.194Z,55.20
2019-06-08T16:42:21.235Z,55.60
2019-06-08T16:45:11.275Z,56.10
2019-06-08T16:48:02.286Z,56.60
2019-06-08T16:50:52.620Z,59.80
2019-06-08T16:53:43.150Z,59.60
2019-06-08T16:56:34.278Z,58.80
2019-06-08T16:59:23.912Z,59.90
2019-06-08T17:02:16.926Z,60.80
2019-06-08T17:05:07.362Z,61.90
2019-06-08T17:07:59.190Z,62.00
2019-06-08T17:10:59.893Z,62.40
2019-06-08T17:13:51.505Z,62.50
2019-06-08T17:16:41.552Z,62.00
2019-06-08T17:19:32.059Z,62.80
2019-06-08T17:22:21.932Z,63.20
2019-06-08T17:25:13.451Z,63.70
2019-06-08T17:28:03.435Z,63.70
2019-06-08T17:30:57.471Z,63.60
2019-06-08T17:33:52.323Z,64.60
2019-06-08T17:36:42.833Z,64.70
2019-06-08T17:39:35.880Z,64.40
2019-06-08T17:42:26.931Z,64.80
2019-06-08T17:45:19.359Z,65.00
2019-06-08T17:48:14.190Z,65.60
2019-06-08T17:51:05.541Z,65.90
2019-06-08T17:54:06.088Z,65.60
2019-06-08T17:56:53.374Z,66.10
2019-06-08T17:59:49.987Z,66.30
2019-06-08T18:02:53.593Z,65.30
2019-06-08T18:05:42.827Z,65.60
2019-06-08T18:08:40.983Z,66.90
2019-06-08T18:11:38.255Z,66.90
2019-06-08T18:14:36.997Z,66.90
2019-06-08T18:17:27.875Z,67.20
2019-06-08T18:20:24.563Z,66.80
2019-06-08T18:23:21.933Z,67.20
2019-06-08T18:26:17.315Z,67.80
2019-06-08T18:29:18.020Z,68.60
2019-06-08T18:32:10.825Z,69.10
2019-06-08T18:35:03.038Z,69.40
2019-06-08T18:37:57.785Z,69.00
2019-06-08T18:40:51.357Z,69.30
2019-06-08T18:43:44.130Z,69.30
2019-06-08T18:46:39.350Z,70.00
2019-06-08T18:49:41.330Z,69.30
2019-06-08T18:52:35.417Z,70.40
2019-06-08T18:55:38.433Z,72.90
2019-06-08T18:58:29.573Z,71.30
2019-06-08T19:01:37.958Z,71.90
2019-06-08T19:04:30.765Z,72.20
2019-06-08T19:07:24.186Z,73.00
2019-06-08T19:10:48.260Z,72.40
2019-06-08T19:13:49.567Z,73.00
2019-06-08T19:16:46.861Z,73.00
2019-06-08T19:19:42.264Z,73.10
2019-06-08T19:22:30.304Z,72.60
2019-06-08T19:25:21.047Z,73.30
2019-06-08T19:28:36.144Z,72.40
2019-06-08T19:31:22.406Z,72.70
2019-06-08T19:34:12.742Z,71.90
2019-06-08T19:37:07.823Z,72.90
2019-06-08T19:39:57.745Z,73.60
2019-06-08T19:42:57.264Z,73.90
2019-06-08T19:55:10.020Z,73.40
2019-06-08T20:12:38.679Z,75.30
2019-06-08T20:16:02.160Z,78.10
2019-06-08T20:19:37.387Z,77.30
2019-06-08T20:26:49.024Z,77.30
2019-06-08T20:29:48.250Z,76.80
2019-06-08T20:32:39.365Z,77.70
2019-06-08T20:35:29.858Z,78.70
2019-06-08T20:38:34.035Z,77.50
2019-06-08T20:41:13.065Z,77.70
2019-06-08T20:56:37.261Z,77.90
2019-06-08T21:03:52.791Z,78.90
2019-06-08T21:10:17.453Z,80.90
2019-06-08T21:13:09.581Z,81.40
2019-06-08T21:16:00.937Z,80.80
2019-06-08T21:18:55.038Z,82.80
2019-06-08T21:21:52.141Z,81.50
2019-06-08T21:24:45.774Z,80.00
2019-06-08T21:27:40.253Z,81.00
2019-06-08T21:30:43.578Z,81.00
2019-06-08T21:33:37.819Z,83.60
2019-06-08T21:36:25.750Z,84.80
2019-06-08T21:39:18.860Z,84.60
2019-06-08T21:42:09.606Z,85.50
2019-06-08T21:45:02.931Z,84.40
2019-06-08T21:47:54.486Z,84.10
2019-06-08T21:50:50.509Z,83.40
2019-06-08T21:53:44.400Z,85.30
2019-06-08T21:56:37.361Z,86.10
2019-06-08T21:59:32.077Z,85.10
2019-06-08T22:02:22.455Z,85.80
2019-06-08T22:05:26.138Z,85.60
2019-06-08T22:08:11.674Z,85.80
2019-06-08T22:11:04.857Z,85.10
2019-06-08T22:13:55.100Z,85.10
2019-06-08T22:20:19.828Z,85.60
2019-06-08T22:23:11.608Z,85.70
2019-06-08T22:27:13.050Z,85.40
2019-06-08T22:38:32.770Z,88.80
2019-06-08T23:12:40.884Z,87.60
2019-06-08T23:19:37.506Z,88.80
2019-06-08T23:22:28.523Z,87.90
2019-06-08T23:25:19.868Z,88.70
2019-06-08T23:28:11.723Z,89.80
2019-06-08T23:31:13.471Z,88.80
2019-06-08T23:34:00.391Z,90.20
2019-06-08T23:36:58.699Z,91.00
2019-06-08T23:39:47.089Z,89.80
2019-06-08T23:42:39.366Z,90.90
2019-06-08T23:45:32.014Z,91.00
2019-06-08T23:48:24.146Z,90.80
2019-06-08T23:51:18.049Z,90.90
2019-06-08T23:54:13.388Z,91.10
2019-06-08T23:57:10.079Z,90.70
